createdAt,value
2019-01-08T00:02:22.742Z,99.69
2019-01-08T00:05:13.272Z,100.00
2019-01-08T00:08:03.877Z,100.00
2019-01-08T00:10:54.383Z,100.00
2019-01-08T00:13:45.016Z,100.00
2019-01-08T00:16:36.046Z,99.82
2019-01-08T00:19:26.828Z,94.49
2019-01-08T00:22:17.355Z,100.00
2019-01-08T00:25:07.803Z,98.21
2019-01-08T00:28:01.030Z,100.00
2019-01-08T00:30:51.395Z,100.00
2019-01-08T00:33:42.216Z,100.00
2019-01-08T00:36:32.501Z,96.35
2019-01-08T00:39:23.037Z,94.99
2019-01-08T00:42:13.682Z,99.09
2019-01-08T00:45:04.231Z,100.00
2019-01-08T00:47:54.835Z,100.00
2019-01-08T00:50:45.168Z,99.67
2019-01-08T00:53:36.099Z,100.00
2019-01-08T00:56:26.577Z,100.00
2019-01-08T00:59:18.367Z,100.00
2019-01-08T01:02:08.870Z,99.25
2019-01-08T01:04:59.861Z,98.62
2019-01-08T01:07:50.552Z,100.00
2019-01-08T01:10:40.946Z,100.00
2019-01-08T01:13:31.272Z,100.00
2019-01-08T01:16:21.623Z,100.00
2019-01-08T01:19:11.966Z,100.00
2019-01-08T01:22:02.324Z,100.00
2019-01-08T01:24:52.768Z,100.00
2019-01-08T01:27:43.648Z,100.00
2019-01-08T01:30:34.496Z,100.00
2019-01-08T01:33:25.213Z,100.00
2019-01-08T01:36:15.645Z,100.00
2019-01-08T01:39:07.011Z,100.00
2019-01-08T01:41:57.715Z,100.00
2019-01-08T01:44:48.355Z,100.00
2019-01-08T01:47:39.012Z,98.70
2019-01-08T01:50:29.495Z,99.77
2019-01-08T01:53:19.818Z,99.87
2019-01-08T01:56:11.174Z,100.00
2019-01-08T01:59:08.281Z,98.11
2019-01-08T02:01:54.266Z,96.94
2019-01-08T02:04:44.646Z,97.53
2019-01-08T02:07:35.387Z,95.71
2019-01-08T02:10:25.776Z,96.18
2019-01-08T02:13:16.898Z,96.83
2019-01-08T02:16:07.479Z,96.97
2019-01-08T02:18:58.141Z,93.68
2019-01-08T02:21:48.908Z,91.19
2019-01-08T02:24:39.452Z,95.65
2019-01-08T02:27:29.985Z,91.30
2019-01-08T02:30:20.762Z,97.77
2019-01-08T02:33:11.154Z,93.92
2019-01-08T02:36:01.813Z,90.98
2019-01-08T02:38:52.068Z,93.20
2019-01-08T02:41:42.481Z,92.40
2019-01-08T02:44:33.166Z,84.15
2019-01-08T02:47:25.737Z,90.12
2019-01-08T02:50:16.370Z,91.22
2019-01-08T02:53:06.910Z,93.25
2019-01-08T02:55:57.302Z,95.84
2019-01-08T02:58:47.855Z,94.51
2019-01-08T03:01:38.365Z,95.34
2019-01-08T03:04:28.968Z,94.46
2019-01-08T03:07:19.542Z,90.16
2019-01-08T03:10:10.278Z,94.44
2019-01-08T03:13:00.631Z,90.01
2019-01-08T03:15:50.927Z,94.64
2019-01-08T03:18:41.557Z,91.61
2019-01-08T03:21:32.001Z,94.38
2019-01-08T03:24:22.783Z,97.01
2019-01-08T03:27:13.174Z,96.96
2019-01-08T03:30:03.897Z,97.01
2019-01-08T03:32:54.344Z,95.85
2019-01-08T03:35:44.571Z,96.89
2019-01-08T03:38:35.231Z,96.03
2019-01-08T03:41:25.805Z,95.24
2019-01-08T03:44:16.363Z,94.13
2019-01-08T03:47:07.154Z,95.19
2019-01-08T03:49:57.701Z,94.08
2019-01-08T03:52:48.325Z,94.48
2019-01-08T03:55:39.024Z,94.32
2019-01-08T03:58:29.686Z,92.41
2019-01-08T04:01:20.659Z,87.21
2019-01-08T04:04:12.467Z,89.96
2019-01-08T04:07:03.292Z,91.02
2019-01-08T04:09:53.804Z,87.10
2019-01-08T04:12:44.242Z,86.24
2019-01-08T04:15:34.491Z,83.37
2019-01-08T04:18:27.015Z,80.20
2019-01-08T04:21:17.438Z,76.66
2019-01-08T04:24:08.065Z,75.13
2019-01-08T04:26:58.791Z,74.63
2019-01-08T04:29:50.567Z,75.01
2019-01-08T04:32:41.813Z,73.59
2019-01-08T04:35:32.211Z,73.68
2019-01-08T04:38:22.807Z,73.24
2019-01-08T04:41:13.525Z,76.00
2019-01-08T04:44:03.919Z,76.03
2019-01-08T04:46:54.624Z,77.97
2019-01-08T04:49:45.367Z,77.43
2019-01-08T04:52:36.038Z,78.22
2019-01-08T04:55:26.192Z,79.19
2019-01-08T04:58:16.827Z,80.22
2019-01-08T05:01:07.395Z,81.85
2019-01-08T05:03:58.157Z,80.99
2019-01-08T05:06:48.728Z,80.89
2019-01-08T05:09:39.460Z,79.11
2019-01-08T05:12:29.807Z,78.51
2019-01-08T05:15:20.385Z,81.02
2019-01-08T05:18:11.073Z,80.19
2019-01-08T05:21:02.007Z,81.50
2019-01-08T05:23:52.622Z,82.24
2019-01-08T05:26:43.295Z,83.22
2019-01-08T05:29:33.869Z,83.67
2019-01-08T05:32:24.084Z,83.40
2019-01-08T05:35:14.571Z,84.32
2019-01-08T05:38:05.392Z,85.20
2019-01-08T05:40:56.051Z,85.60
2019-01-08T05:43:46.211Z,86.91
2019-01-08T05:46:36.783Z,86.08
2019-01-08T05:49:27.449Z,83.85
2019-01-08T05:52:18.081Z,83.89
2019-01-08T05:55:09.035Z,81.77
2019-01-08T05:57:59.747Z,80.85
2019-01-08T06:00:51.206Z,79.47
2019-01-08T06:03:41.793Z,76.80
2019-01-08T06:06:32.509Z,74.26
2019-01-08T06:09:23.020Z,73.83
2019-01-08T06:12:13.571Z,71.40
2019-01-08T06:15:03.814Z,70.03
2019-01-08T06:17:54.321Z,69.07
2019-01-08T06:20:44.607Z,64.74
2019-01-08T06:23:35.001Z,63.76
2019-01-08T06:26:25.367Z,63.12
2019-01-08T06:29:16.056Z,62.23
2019-01-08T06:32:06.793Z,60.13
2019-01-08T06:35:00.480Z,58.19
2019-01-08T06:37:51.327Z,55.02
2019-01-08T06:40:42.096Z,51.41
2019-01-08T06:43:32.796Z,50.03
2019-01-08T06:46:23.386Z,48.63
2019-01-08T06:49:13.846Z,47.54
2019-01-08T06:52:04.458Z,47.09
2019-01-08T06:54:54.659Z,45.52
2019-01-08T06:57:45.378Z,44.14
2019-01-08T07:00:35.508Z,41.42
2019-01-08T07:03:26.281Z,40.87
2019-01-08T07:06:16.915Z,39.32
2019-01-08T07:09:08.395Z,39.31
2019-01-08T07:11:58.725Z,37.48
2019-01-08T07:14:49.596Z,35.92
2019-01-08T07:17:40.046Z,35.03
2019-01-08T07:20:30.408Z,34.87
2019-01-08T07:23:20.737Z,33.12
2019-01-08T07:26:11.443Z,32.01
2019-01-08T07:29:01.881Z,31.16
2019-01-08T07:31:52.713Z,31.28
2019-01-08T07:34:43.173Z,30.19
2019-01-08T07:37:33.798Z,29.83
2019-01-08T07:40:24.254Z,30.18
2019-01-08T07:43:14.924Z,29.87
2019-01-08T07:46:05.372Z,30.75
2019-01-08T07:48:55.715Z,30.73
2019-01-08T07:51:46.275Z,29.61
2019-01-08T07:54:37.029Z,28.91
2019-01-08T07:57:27.415Z,29.02
2019-01-08T08:00:18.046Z,28.30
2019-01-08T08:03:08.653Z,29.03
2019-01-08T08:05:59.172Z,29.12
2019-01-08T08:08:49.599Z,28.93
2019-01-08T08:11:40.285Z,27.36
2019-01-08T08:14:30.964Z,27.15
2019-01-08T08:17:23.161Z,26.87
2019-01-08T08:20:13.535Z,25.44
2019-01-08T08:23:03.974Z,26.87
2019-01-08T08:25:54.529Z,26.44
2019-01-08T08:28:45.353Z,25.66
2019-01-08T08:31:36.052Z,26.04
2019-01-08T08:34:26.461Z,25.26
2019-01-08T08:37:16.891Z,24.86
2019-01-08T08:40:08.308Z,24.39
2019-01-08T08:42:58.639Z,23.41
2019-01-08T08:45:49.339Z,23.03
2019-01-08T08:48:39.695Z,24.66
2019-01-08T08:51:30.544Z,26.11
2019-01-08T08:54:21.099Z,28.43
2019-01-08T08:57:11.437Z,29.61
2019-01-08T09:00:02.149Z,31.06
2019-01-08T09:02:52.758Z,32.00
2019-01-08T09:05:43.594Z,31.24
2019-01-08T09:08:34.546Z,32.15
2019-01-08T09:11:25.345Z,34.14
2019-01-08T09:14:18.811Z,34.14
2019-01-08T09:17:08.967Z,35.17
2019-01-08T09:19:59.382Z,36.04
2019-01-08T09:22:50.001Z,34.85
2019-01-08T09:25:40.780Z,32.98
2019-01-08T09:28:31.209Z,31.81
2019-01-08T09:31:21.895Z,29.47
2019-01-08T09:34:12.420Z,28.58
2019-01-08T09:37:03.018Z,28.76
2019-01-08T09:39:53.791Z,30.22
2019-01-08T09:42:44.661Z,31.53
2019-01-08T09:45:35.250Z,32.42
2019-01-08T09:48:25.849Z,32.54
2019-01-08T09:51:16.142Z,33.03
2019-01-08T09:54:06.868Z,33.90
2019-01-08T09:56:57.364Z,35.59
2019-01-08T09:59:48.152Z,36.50
2019-01-08T10:02:38.331Z,37.30
2019-01-08T10:05:28.824Z,37.63
2019-01-08T10:08:19.103Z,37.99
2019-01-08T10:11:18.027Z,39.39
2019-01-08T10:14:18.299Z,40.94
2019-01-08T10:17:14.399Z,39.97
2019-01-08T10:20:06.366Z,40.43
2019-01-08T10:22:57.247Z,40.52
2019-01-08T10:25:50.121Z,40.46
2019-01-08T10:28:40.866Z,40.72
2019-01-08T10:31:32.548Z,36.58
2019-01-08T10:34:24.049Z,31.65
2019-01-08T10:37:14.601Z,32.48
2019-01-08T10:40:05.388Z,32.59
2019-01-08T10:42:55.641Z,31.53
2019-01-08T10:45:46.442Z,34.45
2019-01-08T10:48:37.104Z,34.28
2019-01-08T10:51:27.945Z,33.82
2019-01-08T10:54:18.805Z,33.75
2019-01-08T10:57:12.369Z,33.20
2019-01-08T11:00:03.891Z,36.11
2019-01-08T11:02:54.793Z,38.02
2019-01-08T11:05:45.534Z,37.66
2019-01-08T11:08:35.707Z,37.24
2019-01-08T11:11:26.591Z,36.83
2019-01-08T11:14:17.242Z,35.91
2019-01-08T11:17:07.573Z,35.09
2019-01-08T11:19:59.353Z,36.73
2019-01-08T11:22:49.910Z,36.50
2019-01-08T11:25:40.524Z,36.71
2019-01-08T11:28:31.057Z,35.63
2019-01-08T11:31:21.748Z,36.99
2019-01-08T11:34:12.496Z,34.60
2019-01-08T11:37:03.221Z,35.86
2019-01-08T11:39:54.398Z,35.72
2019-01-08T11:42:44.961Z,34.97
2019-01-08T11:45:35.363Z,35.47
2019-01-08T11:48:25.926Z,36.33
2019-01-08T11:51:16.210Z,35.29
2019-01-08T11:54:08.267Z,35.28
2019-01-08T11:56:58.949Z,35.74
2019-01-08T11:59:49.591Z,36.22
2019-01-08T12:02:47.774Z,36.45
2019-01-08T12:05:33.345Z,36.97
2019-01-08T12:08:24.153Z,37.58
2019-01-08T12:11:14.864Z,38.29
2019-01-08T12:14:05.469Z,38.34
2019-01-08T12:16:56.017Z,38.82
2019-01-08T12:19:46.724Z,38.67
2019-01-08T12:22:40.952Z,38.19
2019-01-08T12:25:29.640Z,36.86
2019-01-08T12:28:20.623Z,38.34
2019-01-08T12:31:11.474Z,39.37
2019-01-08T12:34:02.353Z,39.95
2019-01-08T12:36:53.973Z,40.08
2019-01-08T12:39:44.804Z,40.47
2019-01-08T12:42:35.334Z,40.01
2019-01-08T12:45:25.658Z,40.42
2019-01-08T12:48:16.523Z,40.21
2019-01-08T12:51:07.022Z,39.86
2019-01-08T12:53:57.674Z,40.41
2019-01-08T12:56:48.544Z,40.40
2019-01-08T12:59:40.737Z,40.68
2019-01-08T13:02:31.638Z,41.10
2019-01-08T13:05:22.282Z,41.56
2019-01-08T13:08:13.240Z,41.88
2019-01-08T13:11:03.785Z,41.93
2019-01-08T13:13:56.399Z,41.97
2019-01-08T13:16:47.312Z,42.89
2019-01-08T13:19:38.113Z,41.94
2019-01-08T13:22:29.089Z,41.90
2019-01-08T13:25:19.587Z,42.79
2019-01-08T13:28:10.289Z,41.76
2019-01-08T13:31:00.827Z,42.55
2019-01-08T13:33:51.329Z,42.32
2019-01-08T13:36:42.147Z,42.71
2019-01-08T13:39:32.541Z,42.74
2019-01-08T13:42:23.419Z,43.21
2019-01-08T13:45:13.927Z,43.75
2019-01-08T13:48:04.953Z,44.05
2019-01-08T13:50:55.474Z,45.17
2019-01-08T13:53:46.133Z,45.49
2019-01-08T13:56:36.958Z,45.08
2019-01-08T13:59:27.470Z,45.67
2019-01-08T14:02:18.327Z,46.08
2019-01-08T14:05:08.746Z,44.73
2019-01-08T14:07:59.123Z,46.11
2019-01-08T14:10:56.397Z,46.87
2019-01-08T14:13:41.790Z,46.67
2019-01-08T14:16:32.142Z,46.85
2019-01-08T14:19:23.018Z,47.29
2019-01-08T14:22:13.426Z,47.02
2019-01-08T14:25:04.020Z,46.79
2019-01-08T14:27:54.736Z,47.02
2019-01-08T14:30:45.507Z,47.05
2019-01-08T14:33:37.230Z,47.19
2019-01-08T14:36:27.904Z,47.47
2019-01-08T14:39:18.617Z,48.45
2019-01-08T14:42:09.135Z,48.91
2019-01-08T14:44:59.739Z,48.58
2019-01-08T14:47:50.113Z,49.37
2019-01-08T14:50:40.602Z,50.75
2019-01-08T14:53:30.803Z,50.94
2019-01-08T14:56:21.157Z,50.96
2019-01-08T14:59:11.543Z,51.61
2019-01-08T15:02:04.935Z,52.09
2019-01-08T15:04:55.443Z,52.53
2019-01-08T15:07:45.797Z,53.65
2019-01-08T15:10:36.030Z,55.52
2019-01-08T15:13:26.973Z,57.34
2019-01-08T15:16:17.673Z,57.04
2019-01-08T15:19:08.505Z,60.06
2019-01-08T15:21:59.389Z,61.61
2019-01-08T15:24:50.001Z,60.95
2019-01-08T15:27:40.405Z,61.80
2019-01-08T15:30:30.995Z,62.82
2019-01-08T15:33:21.545Z,63.07
2019-01-08T15:36:12.296Z,62.00
2019-01-08T15:39:03.267Z,62.32
2019-01-08T15:41:54.861Z,63.70
2019-01-08T15:44:48.458Z,61.95
2019-01-08T15:47:38.609Z,63.36
2019-01-08T15:50:28.852Z,61.48
2019-01-08T15:53:20.492Z,62.18
2019-01-08T15:56:11.045Z,60.76
2019-01-08T15:59:01.867Z,59.40
2019-01-08T16:01:52.666Z,60.60
2019-01-08T16:04:43.169Z,58.34
2019-01-08T16:07:33.896Z,59.28
2019-01-08T16:10:24.596Z,60.17
2019-01-08T16:13:15.341Z,59.91
2019-01-08T16:16:05.986Z,60.03
2019-01-08T16:18:56.414Z,59.37
2019-01-08T16:21:47.175Z,59.89
2019-01-08T16:24:37.779Z,59.16
2019-01-08T16:27:28.321Z,59.20
2019-01-08T16:30:20.127Z,57.25
2019-01-08T16:33:15.917Z,58.42
2019-01-08T16:36:02.992Z,58.11
2019-01-08T16:38:53.244Z,57.18
2019-01-08T16:41:43.910Z,56.53
2019-01-08T16:44:35.641Z,57.33
2019-01-08T16:47:26.409Z,57.15
2019-01-08T16:50:16.814Z,57.79
2019-01-08T16:53:09.571Z,57.07
2019-01-08T16:56:00.079Z,57.70
2019-01-08T16:58:50.192Z,58.90
2019-01-08T17:01:40.755Z,58.09
2019-01-08T17:04:31.427Z,59.26
2019-01-08T17:07:22.242Z,57.75
2019-01-08T17:10:13.830Z,57.69
2019-01-08T17:13:05.285Z,56.91
2019-01-08T17:15:56.302Z,56.62
2019-01-08T17:18:47.259Z,56.51
2019-01-08T17:21:37.515Z,56.02
2019-01-08T17:24:28.134Z,55.61
2019-01-08T17:27:20.177Z,56.10
2019-01-08T17:30:11.987Z,55.80
2019-01-08T17:33:02.560Z,55.65
2019-01-08T17:35:53.132Z,55.83
2019-01-08T17:38:43.498Z,54.70
2019-01-08T17:41:34.477Z,55.61
2019-01-08T17:44:24.856Z,54.72
2019-01-08T17:47:15.603Z,53.20
2019-01-08T17:50:07.531Z,53.40
2019-01-08T17:52:58.249Z,53.05
2019-01-08T17:55:49.159Z,53.91
2019-01-08T17:58:42.067Z,54.93
2019-01-08T18:01:34.762Z,54.23
2019-01-08T18:04:25.651Z,53.97
2019-01-08T18:07:15.968Z,53.95
2019-01-08T18:10:08.177Z,53.88
2019-01-08T18:12:58.884Z,52.10
2019-01-08T18:15:49.466Z,52.08
2019-01-08T18:18:40.180Z,53.47
2019-01-08T18:21:30.466Z,52.80
2019-01-08T18:24:20.873Z,53.41
2019-01-08T18:27:11.482Z,53.96
2019-01-08T18:30:06.195Z,52.75
2019-01-08T18:32:57.451Z,51.07
2019-01-08T18:35:48.341Z,51.08
2019-01-08T18:38:39.207Z,51.54
2019-01-08T18:41:29.911Z,51.58
2019-01-08T18:44:20.674Z,52.56
2019-01-08T18:47:11.274Z,52.25
2019-01-08T18:50:01.653Z,52.61
2019-01-08T18:52:52.060Z,53.07
2019-01-08T18:55:42.627Z,54.88
2019-01-08T18:58:32.934Z,55.69
2019-01-08T19:01:23.574Z,56.99
2019-01-08T19:04:13.824Z,55.16
2019-01-08T19:07:04.504Z,55.97
2019-01-08T19:10:00.492Z,55.63
2019-01-08T19:12:51.173Z,57.75
2019-01-08T19:15:41.805Z,56.93
2019-01-08T19:18:32.484Z,57.33
2019-01-08T19:21:22.740Z,56.73
2019-01-08T19:24:13.453Z,56.64
2019-01-08T19:27:04.005Z,57.19
2019-01-08T19:29:54.834Z,58.66
2019-01-08T19:32:47.504Z,58.84
2019-01-08T19:35:38.160Z,59.92
2019-01-08T19:38:32.442Z,60.09
2019-01-08T19:41:23.362Z,62.26
2019-01-08T19:44:14.089Z,61.94
2019-01-08T19:47:04.850Z,63.19
2019-01-08T19:49:55.492Z,64.69
2019-01-08T19:52:47.881Z,65.21
2019-01-08T19:55:38.110Z,64.81
2019-01-08T19:58:29.706Z,64.79
2019-01-08T20:01:20.538Z,65.77
2019-01-08T20:04:17.659Z,65.77
2019-01-08T20:07:03.432Z,63.57
2019-01-08T20:09:57.102Z,66.05
2019-01-08T20:12:47.647Z,65.91
2019-01-08T20:15:39.010Z,67.15
2019-01-08T20:18:29.387Z,68.01
2019-01-08T20:21:20.314Z,69.09
2019-01-08T20:24:10.756Z,70.13
2019-01-08T20:27:02.529Z,69.25
2019-01-08T20:29:52.996Z,69.98
2019-01-08T20:32:43.913Z,70.37
2019-01-08T20:35:34.456Z,71.44
2019-01-08T20:38:25.502Z,72.16
2019-01-08T20:41:18.791Z,73.69
2019-01-08T20:44:09.883Z,75.13
2019-01-08T20:47:00.317Z,77.04
2019-01-08T20:49:50.913Z,76.69
2019-01-08T20:52:42.621Z,76.86
2019-01-08T20:55:32.910Z,77.45
2019-01-08T20:58:28.668Z,75.76
2019-01-08T21:01:15.438Z,75.76
2019-01-08T21:04:05.772Z,76.26
2019-01-08T21:06:56.654Z,77.48
2019-01-08T21:09:47.270Z,78.49
2019-01-08T21:12:38.110Z,78.83
2019-01-08T21:15:28.513Z,78.74
2019-01-08T21:18:19.059Z,78.17
2019-01-08T21:21:10.663Z,77.58
2019-01-08T21:24:01.505Z,77.30
2019-01-08T21:26:51.973Z,77.12
2019-01-08T21:29:43.014Z,77.49
2019-01-08T21:32:33.872Z,75.96
2019-01-08T21:35:24.298Z,74.84
2019-01-08T21:38:14.735Z,75.41
2019-01-08T21:41:05.318Z,75.49
2019-01-08T21:43:55.545Z,74.56
2019-01-08T21:46:46.282Z,73.77
2019-01-08T21:49:36.919Z,72.37
2019-01-08T21:52:28.164Z,72.28
2019-01-08T21:55:18.992Z,74.94
2019-01-08T21:58:09.550Z,75.34
2019-01-08T22:01:00.144Z,79.52
2019-01-08T22:03:50.967Z,79.44
2019-01-08T22:06:41.442Z,79.66
2019-01-08T22:09:32.482Z,78.23
2019-01-08T22:12:23.055Z,75.82
2019-01-08T22:15:14.955Z,78.67
2019-01-08T22:18:05.210Z,78.68
2019-01-08T22:20:55.772Z,78.81
2019-01-08T22:23:46.612Z,79.93
2019-01-08T22:26:37.620Z,78.07
2019-01-08T22:29:28.337Z,79.81
2019-01-08T22:32:18.535Z,80.43
2019-01-08T22:35:09.207Z,81.17
2019-01-08T22:37:59.599Z,81.34
2019-01-08T22:40:50.087Z,79.61
2019-01-08T22:43:41.223Z,80.43
2019-01-08T22:46:33.958Z,78.18
2019-01-08T22:49:24.295Z,79.22
2019-01-08T22:52:17.659Z,80.79
2019-01-08T22:55:08.257Z,80.92
2019-01-08T22:57:58.877Z,81.80
2019-01-08T23:01:14.116Z,83.25
2019-01-08T23:04:06.596Z,85.67
2019-01-08T23:06:57.314Z,86.78
2019-01-08T23:09:48.779Z,89.13
2019-01-08T23:12:39.212Z,90.02
2019-01-08T23:15:29.932Z,91.00
2019-01-08T23:18:20.666Z,89.86
2019-01-08T23:21:12.713Z,90.67
2019-01-08T23:24:03.491Z,91.81
2019-01-08T23:26:53.875Z,90.61
2019-01-08T23:29:44.837Z,91.35
2019-01-08T23:32:35.682Z,90.47
2019-01-08T23:35:26.440Z,89.41
2019-01-08T23:38:16.919Z,89.87
2019-01-08T23:41:07.436Z,87.69
2019-01-08T23:43:57.838Z,88.34
2019-01-08T23:46:48.392Z,90.32
2019-01-08T23:49:38.629Z,91.83
2019-01-08T23:52:35.268Z,90.62
2019-01-08T23:55:25.895Z,92.29
2019-01-08T23:58:16.678Z,89.10
